createdAt,value
2017-04-18T00:00:03.646Z,68.10
2017-04-18T00:01:01.743Z,68.20
2017-04-18T00:01:59.896Z,67.90
2017-04-18T00:02:58.091Z,68.40
2017-04-18T00:03:56.271Z,68.70
2017-04-18T00:04:54.474Z,69.50
2017-04-18T00:05:52.864Z,68.80
2017-04-18T00:06:51.083Z,69.50
2017-04-18T00:07:49.255Z,69.20
2017-04-18T00:08:47.445Z,70.50
2017-04-18T00:09:45.578Z,70.00
2017-04-18T00:10:44.063Z,70.60
2017-04-18T00:11:42.151Z,70.90
2017-04-18T00:12:40.386Z,71.40
2017-04-18T00:13:38.571Z,71.30
2017-04-18T00:14:36.631Z,70.30
2017-04-18T00:15:34.808Z,70.70
2017-04-18T00:16:33.043Z,70.70
2017-04-18T00:17:31.313Z,69.30
2017-04-18T00:18:29.527Z,70.80
2017-04-18T00:19:27.710Z,70.60
2017-04-18T00:20:26.088Z,69.70
2017-04-18T00:21:24.230Z,69.30
2017-04-18T00:22:22.612Z,69.70
2017-04-18T00:23:20.704Z,68.40
2017-04-18T00:24:19.880Z,67.90
2017-04-18T00:25:18.203Z,67.20
2017-04-18T00:26:16.646Z,68.50
2017-04-18T00:27:15.227Z,67.90
2017-04-18T00:28:13.335Z,66.80
2017-04-18T00:29:11.602Z,67.80
2017-04-18T00:30:09.750Z,68.50
2017-04-18T00:31:07.883Z,68.20
2017-04-18T00:32:06.323Z,68.60
2017-04-18T00:33:04.543Z,69.40
2017-04-18T00:34:02.672Z,68.30
2017-04-18T00:35:00.861Z,69.20
2017-04-18T00:35:59.096Z,70.10
2017-04-18T00:36:57.260Z,68.20
2017-04-18T00:37:55.371Z,68.50
2017-04-18T00:38:53.499Z,68.60
2017-04-18T00:39:51.342Z,68.60
2017-04-18T00:40:49.476Z,69.90
2017-04-18T00:41:47.639Z,68.90
2017-04-18T00:42:45.819Z,70.10
2017-04-18T00:43:44.660Z,69.90
2017-04-18T00:44:43.165Z,70.30
2017-04-18T00:45:41.348Z,69.70
2017-04-18T00:46:39.384Z,69.90
2017-04-18T00:47:37.526Z,70.20
2017-04-18T00:48:35.704Z,69.90
2017-04-18T00:49:33.795Z,69.90
2017-04-18T00:50:32.000Z,70.50
2017-04-18T00:51:30.156Z,71.10
2017-04-18T00:52:28.578Z,70.30
2017-04-18T00:53:26.740Z,70.90
2017-04-18T00:54:24.830Z,70.90
2017-04-18T00:55:23.864Z,71.40
2017-04-18T00:56:22.035Z,70.40
2017-04-18T00:57:20.249Z,70.60
2017-04-18T00:58:18.501Z,69.50
2017-04-18T00:59:16.750Z,70.10
2017-04-18T01:00:15.378Z,69.50
2017-04-18T01:01:13.731Z,70.40
2017-04-18T01:02:11.596Z,70.40
2017-04-18T01:03:10.135Z,71.10
2017-04-18T01:04:08.257Z,70.80
2017-04-18T01:05:06.517Z,70.80
2017-04-18T01:06:04.703Z,71.10
2017-04-18T01:07:02.871Z,71.00
2017-04-18T01:08:01.116Z,71.90
2017-04-18T01:08:59.301Z,71.90
2017-04-18T01:09:57.561Z,71.90
2017-04-18T01:10:55.999Z,72.90
2017-04-18T01:11:54.183Z,73.50
2017-04-18T01:12:52.351Z,73.40
2017-04-18T01:13:50.523Z,72.90
2017-04-18T01:14:48.748Z,72.10
2017-04-18T01:15:46.956Z,72.60
2017-04-18T01:16:45.072Z,71.80
2017-04-18T01:17:43.302Z,71.80
2017-04-18T01:18:41.463Z,71.80
2017-04-18T01:19:39.664Z,72.00
2017-04-18T01:20:38.103Z,71.90
2017-04-18T01:21:36.292Z,70.60
2017-04-18T01:22:34.498Z,70.20
2017-04-18T01:23:32.681Z,70.50
2017-04-18T01:24:30.857Z,70.80
2017-04-18T01:25:29.039Z,71.10
2017-04-18T01:26:27.300Z,70.30
2017-04-18T01:27:25.046Z,70.30
2017-04-18T01:28:23.180Z,69.30
2017-04-18T01:29:21.296Z,69.00
2017-04-18T01:30:19.615Z,69.70
2017-04-18T01:31:17.812Z,70.10
2017-04-18T01:32:16.238Z,71.30
2017-04-18T01:33:14.046Z,71.40
2017-04-18T01:34:12.192Z,70.50
2017-04-18T01:35:10.435Z,71.10
2017-04-18T01:36:08.699Z,71.40
2017-04-18T01:37:06.878Z,71.90
2017-04-18T01:38:04.987Z,71.90
2017-04-18T01:39:03.279Z,71.10
2017-04-18T01:40:06.069Z,70.40
2017-04-18T01:41:09.795Z,71.00
2017-04-18T01:42:13.567Z,71.00
2017-04-18T01:43:17.707Z,70.50
2017-04-18T01:44:21.493Z,71.30
2017-04-18T01:45:25.386Z,70.40
2017-04-18T01:46:29.211Z,70.40
2017-04-18T01:47:27.444Z,70.50
2017-04-18T01:48:25.907Z,70.80
2017-04-18T01:49:24.070Z,71.40
2017-04-18T01:50:22.303Z,69.90
2017-04-18T01:51:20.156Z,69.90
2017-04-18T01:52:18.301Z,70.40
2017-04-18T01:53:16.019Z,70.40
2017-04-18T01:54:14.241Z,71.50
2017-04-18T01:55:12.399Z,71.60
2017-04-18T01:56:10.596Z,71.10
2017-04-18T01:57:08.731Z,72.20
2017-04-18T01:58:06.967Z,72.10
2017-04-18T01:59:05.040Z,71.30
2017-04-18T02:00:03.775Z,71.60
2017-04-18T02:01:01.892Z,71.80
2017-04-18T02:02:00.147Z,71.10
2017-04-18T02:02:58.315Z,70.10
2017-04-18T02:03:56.145Z,70.10
2017-04-18T02:04:54.338Z,69.60
2017-04-18T02:05:52.799Z,68.90
2017-04-18T02:06:50.909Z,68.60
2017-04-18T02:07:48.649Z,68.60
2017-04-18T02:08:46.445Z,68.00
2017-04-18T02:09:44.587Z,68.00
2017-04-18T02:10:42.867Z,68.30
2017-04-18T02:11:41.036Z,68.20
2017-04-18T02:12:39.199Z,68.10
2017-04-18T02:13:37.321Z,68.20
2017-04-18T02:14:35.434Z,67.90
2017-04-18T02:15:33.715Z,68.60
2017-04-18T02:16:31.828Z,69.20
2017-04-18T02:17:29.892Z,68.40
2017-04-18T02:18:28.027Z,68.50
2017-04-18T02:19:25.781Z,68.50
2017-04-18T02:20:23.980Z,69.80
2017-04-18T02:21:22.148Z,69.00
2017-04-18T02:22:20.249Z,70.00
2017-04-18T02:23:18.371Z,70.40
2017-04-18T02:24:16.555Z,70.50
2017-04-18T02:25:15.158Z,69.70
2017-04-18T02:26:13.203Z,69.50
2017-04-18T02:27:11.305Z,69.90
2017-04-18T02:28:09.040Z,69.90
2017-04-18T02:29:07.144Z,70.80
2017-04-18T02:30:05.340Z,71.00
2017-04-18T02:31:03.125Z,71.00
2017-04-18T02:32:01.319Z,70.90
2017-04-18T02:32:59.497Z,71.20
2017-04-18T02:33:57.748Z,71.80
2017-04-18T02:34:55.900Z,70.80
2017-04-18T02:35:54.536Z,71.30
2017-04-18T02:36:52.713Z,71.20
2017-04-18T02:37:50.828Z,72.10
2017-04-18T02:38:48.937Z,72.60
2017-04-18T02:39:47.007Z,72.00
2017-04-18T02:40:45.226Z,72.80
2017-04-18T02:41:43.413Z,71.70
2017-04-18T02:42:41.583Z,71.20
2017-04-18T02:43:39.784Z,71.70
2017-04-18T02:44:37.899Z,71.70
2017-04-18T02:45:36.063Z,71.30
2017-04-18T02:46:33.844Z,71.40
2017-04-18T02:47:32.051Z,71.40
2017-04-18T02:48:30.216Z,71.60
2017-04-18T02:49:28.378Z,71.80
2017-04-18T02:50:26.608Z,72.30
2017-04-18T02:51:24.769Z,71.80
2017-04-18T02:52:22.886Z,72.20
2017-04-18T02:53:21.087Z,72.60
2017-04-18T02:54:19.247Z,72.50
2017-04-18T02:55:17.475Z,71.50
2017-04-18T02:56:16.232Z,72.80
2017-04-18T02:57:14.295Z,71.50
2017-04-18T02:58:12.439Z,71.20
2017-04-18T02:59:10.554Z,71.50
2017-04-18T03:00:08.814Z,70.70
2017-04-18T03:01:07.015Z,70.70
2017-04-18T03:02:05.193Z,70.30
2017-04-18T03:03:03.440Z,69.80
2017-04-18T03:04:01.605Z,69.10
2017-04-18T03:04:59.784Z,68.40
2017-04-18T03:05:57.916Z,68.80
2017-04-18T03:06:56.075Z,67.80
2017-04-18T03:07:54.299Z,68.20
2017-04-18T03:08:52.396Z,68.30
2017-04-18T03:09:50.087Z,68.40
2017-04-18T03:10:48.764Z,68.80
2017-04-18T03:11:46.916Z,69.30
2017-04-18T03:12:45.099Z,69.60
2017-04-18T03:13:43.284Z,69.60
2017-04-18T03:14:41.392Z,69.40
2017-04-18T03:15:39.220Z,69.40
2017-04-18T03:16:37.375Z,68.90
2017-04-18T03:17:35.676Z,68.80
2017-04-18T03:18:33.775Z,69.90
2017-04-18T03:19:31.884Z,69.90
2017-04-18T03:20:30.117Z,69.60
2017-04-18T03:21:28.221Z,69.50
2017-04-18T03:22:26.849Z,69.40
2017-04-18T03:23:24.969Z,69.10
2017-04-18T03:24:23.133Z,69.40
2017-04-18T03:25:21.248Z,69.90
2017-04-18T03:26:19.439Z,69.90
2017-04-18T03:27:17.572Z,69.20
2017-04-18T03:28:15.699Z,68.60
2017-04-18T03:29:13.870Z,68.60
2017-04-18T03:30:12.083Z,68.90
2017-04-18T03:31:10.160Z,68.20
2017-04-18T03:32:08.309Z,68.20
2017-04-18T03:33:06.495Z,68.00
2017-04-18T03:34:04.703Z,69.20
2017-04-18T03:35:02.898Z,67.80
2017-04-18T03:36:01.141Z,67.90
2017-04-18T03:36:59.315Z,68.50
2017-04-18T03:37:57.431Z,67.80
2017-04-18T03:38:55.526Z,68.30
2017-04-18T03:39:53.623Z,68.20
2017-04-18T03:40:51.795Z,68.30
2017-04-18T03:41:49.908Z,69.00
2017-04-18T03:42:48.168Z,70.10
2017-04-18T03:43:46.921Z,70.10
2017-04-18T03:44:45.099Z,68.90
2017-04-18T03:45:43.284Z,68.50
2017-04-18T03:46:41.391Z,68.60
2017-04-18T03:47:39.528Z,67.80
2017-04-18T03:48:37.669Z,68.70
2017-04-18T03:49:35.800Z,68.60
2017-04-18T03:50:34.378Z,67.80
2017-04-18T03:51:32.550Z,68.50
2017-04-18T03:52:30.642Z,69.10
2017-04-18T03:53:28.757Z,69.10
2017-04-18T03:54:26.520Z,69.10
2017-04-18T03:55:24.667Z,68.10
2017-04-18T03:56:22.815Z,68.40
2017-04-18T03:57:20.915Z,70.10
2017-04-18T03:58:19.268Z,70.80
2017-04-18T03:59:17.668Z,70.90
2017-04-18T04:00:15.787Z,70.60
2017-04-18T04:01:13.925Z,69.30
2017-04-18T04:02:12.467Z,69.10
2017-04-18T04:03:10.571Z,69.20
2017-04-18T04:04:08.755Z,69.30
2017-04-18T04:05:06.927Z,68.50
2017-04-18T04:06:04.723Z,68.50
2017-04-18T04:07:02.871Z,68.60
2017-04-18T04:08:01.075Z,68.20
2017-04-18T04:08:59.192Z,67.30
2017-04-18T04:09:56.882Z,67.30
2017-04-18T04:10:55.114Z,67.30
2017-04-18T04:11:53.256Z,67.40
2017-04-18T04:12:51.403Z,68.60
2017-04-18T04:13:49.733Z,67.40
2017-04-18T04:14:47.952Z,69.20
2017-04-18T04:15:46.195Z,68.60
2017-04-18T04:16:44.926Z,68.70
2017-04-18T04:17:43.124Z,67.90
2017-04-18T04:18:41.237Z,68.00
2017-04-18T04:19:39.440Z,68.20
2017-04-18T04:20:37.558Z,69.30
2017-04-18T04:21:35.692Z,70.00
2017-04-18T04:22:33.358Z,70.00
2017-04-18T04:23:31.578Z,69.20
2017-04-18T04:24:29.291Z,69.20
2017-04-18T04:25:27.389Z,71.40
2017-04-18T04:26:25.492Z,71.20
2017-04-18T04:27:23.873Z,71.70
2017-04-18T04:28:22.036Z,71.20
2017-04-18T04:29:20.396Z,71.20
2017-04-18T04:30:18.627Z,71.20
2017-04-18T04:31:16.765Z,71.20
2017-04-18T04:32:14.914Z,71.30
2017-04-18T04:33:13.075Z,70.00
2017-04-18T04:34:11.183Z,70.60
2017-04-18T04:35:09.557Z,71.50
2017-04-18T04:36:07.656Z,71.60
2017-04-18T04:37:05.777Z,70.40
2017-04-18T04:38:03.442Z,70.40
2017-04-18T04:39:01.571Z,69.70
2017-04-18T04:39:59.719Z,68.20
2017-04-18T04:40:57.911Z,69.60
2017-04-18T04:41:56.079Z,69.10
2017-04-18T04:42:54.277Z,68.20
2017-04-18T04:43:52.080Z,68.20
2017-04-18T04:44:50.227Z,66.00
2017-04-18T04:45:48.110Z,66.00
2017-04-18T04:46:46.219Z,67.10
2017-04-18T04:47:44.308Z,66.70
2017-04-18T04:48:42.438Z,65.40
2017-04-18T04:49:40.121Z,65.40
2017-04-18T04:50:38.267Z,67.00
2017-04-18T04:51:36.337Z,66.20
2017-04-18T04:52:34.383Z,66.90
2017-04-18T04:53:32.435Z,67.50
2017-04-18T04:54:30.595Z,68.60
2017-04-18T04:55:28.740Z,68.20
2017-04-18T04:56:26.799Z,68.40
2017-04-18T04:57:24.908Z,69.10
2017-04-18T04:58:22.979Z,68.20
2017-04-18T04:59:21.015Z,68.50
2017-04-18T05:00:19.580Z,69.90
2017-04-18T05:01:17.709Z,70.80
2017-04-18T05:02:15.950Z,70.00
2017-04-18T05:03:14.068Z,69.50
2017-04-18T05:04:12.311Z,69.50
2017-04-18T05:05:10.433Z,69.90
2017-04-18T05:06:08.280Z,69.90
2017-04-18T05:07:06.369Z,70.30
2017-04-18T05:08:04.504Z,70.70
2017-04-18T05:09:02.356Z,70.70
2017-04-18T05:10:00.497Z,71.20
2017-04-18T05:10:58.760Z,70.90
2017-04-18T05:11:56.948Z,70.00
2017-04-18T05:12:55.116Z,70.20
2017-04-18T05:13:53.276Z,69.30
2017-04-18T05:14:51.439Z,68.30
2017-04-18T05:15:49.619Z,68.30
2017-04-18T05:16:47.722Z,68.60
2017-04-18T05:17:45.840Z,68.20
2017-04-18T05:18:43.971Z,68.10
2017-04-18T05:19:42.038Z,68.40
2017-04-18T05:20:40.343Z,68.20
2017-04-18T05:21:38.484Z,67.80
2017-04-18T05:22:36.597Z,67.60
2017-04-18T05:23:34.836Z,67.20
2017-04-18T05:24:32.991Z,68.10
2017-04-18T05:25:31.127Z,68.20
2017-04-18T05:26:29.270Z,68.40
2017-04-18T05:27:27.415Z,68.40
2017-04-18T05:28:25.654Z,69.30
2017-04-18T05:29:23.396Z,69.30
2017-04-18T05:30:21.571Z,68.20
2017-04-18T05:31:19.715Z,68.40
2017-04-18T05:32:17.831Z,68.20
2017-04-18T05:33:16.407Z,68.90
2017-04-18T05:34:14.507Z,68.30
2017-04-18T05:35:12.715Z,66.90
2017-04-18T05:36:10.827Z,68.50
2017-04-18T05:37:08.992Z,68.10
2017-04-18T05:38:07.283Z,68.40
2017-04-18T05:39:05.640Z,68.00
2017-04-18T05:40:03.840Z,68.30
2017-04-18T05:41:01.974Z,68.40
2017-04-18T05:42:00.069Z,67.60
2017-04-18T05:42:58.170Z,66.60
2017-04-18T05:43:57.300Z,66.70
2017-04-18T05:44:55.372Z,64.60
2017-04-18T05:45:53.535Z,65.40
2017-04-18T05:46:51.338Z,65.30
2017-04-18T05:47:49.437Z,67.00
2017-04-18T05:48:47.641Z,66.50
2017-04-18T05:49:45.760Z,65.10
2017-04-18T05:50:44.002Z,65.30
2017-04-18T05:51:42.145Z,64.00
2017-04-18T05:52:40.332Z,65.70
2017-04-18T05:53:38.450Z,65.60
2017-04-18T05:54:36.630Z,65.10
2017-04-18T05:55:34.832Z,66.10
2017-04-18T05:56:33.104Z,67.50
2017-04-18T05:57:31.171Z,66.90
2017-04-18T05:58:29.306Z,67.90
2017-04-18T05:59:27.059Z,67.90
2017-04-18T06:00:25.207Z,66.90
2017-04-18T06:01:22.940Z,66.90
2017-04-18T06:02:21.531Z,67.50
2017-04-18T06:03:19.602Z,67.00
2017-04-18T06:04:17.961Z,66.40
2017-04-18T06:05:16.148Z,66.20
2017-04-18T06:06:14.320Z,65.90
2017-04-18T06:07:12.414Z,67.10
2017-04-18T06:08:10.622Z,66.90
2017-04-18T06:09:08.708Z,66.20
2017-04-18T06:10:06.648Z,66.20
2017-04-18T06:11:04.753Z,65.60
2017-04-18T06:12:03.384Z,65.60
2017-04-18T06:13:01.091Z,65.60
2017-04-18T06:13:59.220Z,65.20
2017-04-18T06:14:57.376Z,64.50
2017-04-18T06:15:55.548Z,64.00
2017-04-18T06:16:53.327Z,63.90
2017-04-18T06:17:51.419Z,63.80
2017-04-18T06:18:49.612Z,62.80
2017-04-18T06:19:47.763Z,62.80
2017-04-18T06:20:46.191Z,63.10
2017-04-18T06:21:44.699Z,64.30
2017-04-18T06:22:42.772Z,63.00
2017-04-18T06:25:11.259Z,63.60
2017-04-18T06:26:09.359Z,62.40
2017-04-18T06:27:07.483Z,63.50
2017-04-18T06:28:05.616Z,62.90
2017-04-18T06:29:04.496Z,65.40
2017-04-18T06:30:02.914Z,66.60
2017-04-18T06:31:01.052Z,67.10
2017-04-18T06:31:58.776Z,67.10
2017-04-18T06:32:56.978Z,66.20
2017-04-18T06:33:55.117Z,67.10
2017-04-18T06:34:53.944Z,67.50
2017-04-18T06:35:52.881Z,68.70
2017-04-18T06:36:50.966Z,68.10
2017-04-18T06:37:49.147Z,65.50
2017-04-18T06:38:47.333Z,64.70
2017-04-18T06:39:45.169Z,64.60
2017-04-18T06:40:43.439Z,67.40
2017-04-18T06:41:41.586Z,66.10
2017-04-18T06:42:39.759Z,68.00
2017-04-18T06:43:37.491Z,68.00
2017-04-18T06:44:35.629Z,67.20
2017-04-18T06:45:34.311Z,66.40
2017-04-18T06:46:32.444Z,66.80
2017-04-18T06:47:30.240Z,66.80
2017-04-18T06:48:28.395Z,63.40
2017-04-18T06:49:26.487Z,63.10
2017-04-18T06:50:24.678Z,63.80
2017-04-18T06:51:22.904Z,65.70
2017-04-18T06:52:20.740Z,65.70
2017-04-18T06:53:18.956Z,65.00
2017-04-18T06:54:17.157Z,63.60
2017-04-18T06:55:15.635Z,62.90
2017-04-18T06:56:14.281Z,63.50
2017-04-18T06:57:12.378Z,61.90
2017-04-18T06:58:10.550Z,63.80
2017-04-18T06:59:08.719Z,63.00
2017-04-18T07:00:06.930Z,61.70
2017-04-18T07:01:05.559Z,62.50
2017-04-18T07:02:03.708Z,64.00
2017-04-18T07:03:12.437Z,63.20
2017-04-18T07:04:10.574Z,64.20
2017-04-18T07:05:09.049Z,63.50
2017-04-18T07:06:07.467Z,63.20
2017-04-18T07:07:05.578Z,64.50
2017-04-18T07:08:03.352Z,64.40
2017-04-18T07:09:02.803Z,63.40
2017-04-18T07:10:00.578Z,63.40
2017-04-18T07:10:58.766Z,62.90
2017-04-18T07:11:56.812Z,62.00
2017-04-18T07:12:54.936Z,64.10
2017-04-18T07:13:52.694Z,64.10
2017-04-18T07:14:50.632Z,62.60
2017-04-18T07:15:48.390Z,64.20
2017-04-18T07:16:46.111Z,64.40
2017-04-18T07:17:44.186Z,62.90
2017-04-18T07:18:42.288Z,61.70
2017-04-18T07:19:40.428Z,62.80
2017-04-18T07:20:38.591Z,62.10
2017-04-18T07:21:36.659Z,62.20
2017-04-18T07:22:34.792Z,63.70
2017-04-18T07:23:32.940Z,65.40
2017-04-18T07:24:31.006Z,66.10
2017-04-18T07:25:29.124Z,65.90
2017-04-18T07:26:27.197Z,65.10
2017-04-18T07:27:25.311Z,64.10
2017-04-18T07:28:24.481Z,63.00
2017-04-18T07:29:22.827Z,62.70
2017-04-18T07:30:20.601Z,62.70
2017-04-18T07:31:18.723Z,64.30
2017-04-18T07:32:17.151Z,65.60
2017-04-18T07:33:15.256Z,66.00
2017-04-18T07:34:13.344Z,63.70
2017-04-18T07:35:11.851Z,63.60
2017-04-18T07:36:09.948Z,63.40
2017-04-18T07:37:07.867Z,63.40
2017-04-18T07:38:05.949Z,62.50
2017-04-18T07:39:04.754Z,63.80
2017-04-18T07:40:02.922Z,64.00
2017-04-18T07:41:00.996Z,64.00
2017-04-18T07:41:59.073Z,64.50
2017-04-18T07:42:57.172Z,66.00
2017-04-18T07:43:55.223Z,65.80
2017-04-18T07:44:53.357Z,66.80
2017-04-18T07:45:51.548Z,64.90
2017-04-18T07:46:49.587Z,64.40
2017-04-18T07:47:47.676Z,64.00
2017-04-18T07:48:45.793Z,63.50
2017-04-18T07:49:43.947Z,62.60
2017-04-18T07:50:42.463Z,61.00
2017-04-18T07:51:40.208Z,60.90
2017-04-18T07:52:38.338Z,62.40
2017-04-18T07:53:36.436Z,62.60
2017-04-18T07:54:35.355Z,63.60
2017-04-18T07:55:33.530Z,61.10
2017-04-18T07:56:31.663Z,63.70
2017-04-18T07:57:30.178Z,62.40
2017-04-18T07:58:28.280Z,61.20
2017-04-18T07:59:26.393Z,61.20
2017-04-18T08:00:24.561Z,61.20
2017-04-18T08:01:22.766Z,61.30
2017-04-18T08:02:20.848Z,61.00
2017-04-18T08:03:18.920Z,62.00
2017-04-18T08:04:16.991Z,62.50
2017-04-18T08:05:15.180Z,63.90
2017-04-18T08:06:13.271Z,62.40
2017-04-18T08:07:11.379Z,61.90
2017-04-18T08:08:09.428Z,62.30
2017-04-18T08:09:07.931Z,63.10
2017-04-18T08:10:06.155Z,62.40
2017-04-18T08:11:04.697Z,62.80
2017-04-18T08:12:02.812Z,64.30
2017-04-18T08:13:00.907Z,63.30
2017-04-18T08:13:59.003Z,62.50
2017-04-18T08:14:57.026Z,63.20
2017-04-18T08:15:55.489Z,63.00
2017-04-18T08:16:53.549Z,62.70
2017-04-18T08:17:51.280Z,62.70
2017-04-18T08:18:49.448Z,62.50
2017-04-18T08:19:47.188Z,62.50
2017-04-18T08:20:45.337Z,61.80
2017-04-18T08:21:43.673Z,61.90
2017-04-18T08:22:41.767Z,60.60
2017-04-18T08:23:39.881Z,61.40
2017-04-18T08:24:37.951Z,59.00
2017-04-18T08:25:36.032Z,58.90
2017-04-18T08:26:34.095Z,60.20
2017-04-18T08:27:32.645Z,62.10
2017-04-18T08:28:30.720Z,60.90
2017-04-18T08:29:28.810Z,60.60
2017-04-18T08:30:26.954Z,62.00
2017-04-18T08:31:25.081Z,63.30
2017-04-18T08:32:23.172Z,63.10
2017-04-18T08:33:21.617Z,63.50
2017-04-18T08:34:19.772Z,63.60
2017-04-18T08:35:18.020Z,64.00
2017-04-18T08:36:16.148Z,63.20
2017-04-18T08:37:14.257Z,64.80
2017-04-18T08:38:12.366Z,64.90
2017-04-18T08:39:10.412Z,64.50
2017-04-18T08:40:08.957Z,64.70
2017-04-18T08:41:07.139Z,63.50
2017-04-18T08:42:05.246Z,64.50
2017-04-18T08:43:03.332Z,64.80
2017-04-18T08:44:01.600Z,65.00
2017-04-18T08:44:59.730Z,65.60
2017-04-18T08:45:57.911Z,65.40
2017-04-18T08:46:56.056Z,65.80
2017-04-18T08:47:54.171Z,66.10
2017-04-18T08:48:52.336Z,66.50
2017-04-18T08:49:50.434Z,68.00
2017-04-18T08:50:48.975Z,67.90
2017-04-18T08:51:47.051Z,68.30
2017-04-18T08:52:45.171Z,68.10
2017-04-18T08:53:43.316Z,68.60
2017-04-18T08:54:41.440Z,68.30
2017-04-18T08:55:39.806Z,69.20
2017-04-18T08:56:38.391Z,67.30
2017-04-18T08:57:36.443Z,68.50
2017-04-18T08:58:34.545Z,67.40
2017-04-18T08:59:32.671Z,66.40
2017-04-18T09:00:30.804Z,66.20
2017-04-18T09:01:28.907Z,65.30
2017-04-18T09:02:27.014Z,66.30
2017-04-18T09:03:24.762Z,66.30
2017-04-18T09:04:22.875Z,65.80
2017-04-18T09:05:20.625Z,65.90
2017-04-18T09:06:18.700Z,65.50
2017-04-18T09:07:17.144Z,65.40
2017-04-18T09:08:15.272Z,65.30
2017-04-18T09:09:13.404Z,65.80
2017-04-18T09:10:11.611Z,66.00
2017-04-18T09:11:09.715Z,66.00
2017-04-18T09:12:07.821Z,65.80
2017-04-18T09:13:05.955Z,63.90
2017-04-18T09:14:04.165Z,63.70
2017-04-18T09:15:02.324Z,62.90
2017-04-18T09:16:00.451Z,62.40
2017-04-18T09:16:58.966Z,63.00
2017-04-18T09:17:57.085Z,63.50
2017-04-18T09:18:55.161Z,63.80
2017-04-18T09:19:53.289Z,64.30
2017-04-18T09:20:51.545Z,65.60
2017-04-18T09:21:49.621Z,64.70
2017-04-18T09:22:47.716Z,64.70
2017-04-18T09:23:45.906Z,64.40
2017-04-18T09:24:43.979Z,64.30
2017-04-18T09:25:42.247Z,64.30
2017-04-18T09:26:40.341Z,63.20
2017-04-18T09:27:38.429Z,63.20
2017-04-18T09:28:36.176Z,63.20
2017-04-18T09:29:34.220Z,62.40
2017-04-18T09:30:32.348Z,63.90
2017-04-18T09:31:30.522Z,65.30
2017-04-18T09:32:28.600Z,65.50
2017-04-18T09:33:26.651Z,65.40
2017-04-18T09:34:24.352Z,65.40
2017-04-18T09:35:22.441Z,65.70
2017-04-18T09:36:20.503Z,65.10
2017-04-18T09:37:18.581Z,65.90
2017-04-18T09:38:16.694Z,65.80
2017-04-18T09:39:14.779Z,66.50
2017-04-18T09:40:12.991Z,65.50
2017-04-18T09:41:11.115Z,64.10
2017-04-18T09:42:09.194Z,63.90
2017-04-18T09:43:07.970Z,64.50
2017-04-18T09:44:06.079Z,62.90
2017-04-18T09:45:04.285Z,63.10
2017-04-18T09:46:02.439Z,62.30
2017-04-18T09:47:00.599Z,64.50
2017-04-18T09:47:58.723Z,64.10
2017-04-18T09:48:56.808Z,61.80
2017-04-18T09:49:54.915Z,61.90
2017-04-18T09:50:53.360Z,61.20
2017-04-18T09:51:51.515Z,62.20
2017-04-18T09:52:49.647Z,62.50
2017-04-18T09:53:47.747Z,60.80
2017-04-18T09:54:45.862Z,60.90
2017-04-18T09:55:43.970Z,60.80
2017-04-18T09:56:42.463Z,59.80
2017-04-18T09:57:40.624Z,61.10
2017-04-18T09:58:38.735Z,60.70
2017-04-18T09:59:36.874Z,60.10
2017-04-18T10:00:35.068Z,60.40
2017-04-18T10:01:33.232Z,60.90
2017-04-18T10:02:31.394Z,60.80
2017-04-18T10:03:29.797Z,59.70
2017-04-18T10:04:27.933Z,60.30
2017-04-18T10:05:26.192Z,60.50
2017-04-18T10:06:24.282Z,59.50
2017-04-18T10:07:22.412Z,58.20
2017-04-18T10:08:20.499Z,57.70
2017-04-18T10:09:18.918Z,56.40
2017-04-18T10:10:17.060Z,56.30
2017-04-18T10:11:15.152Z,56.90
2017-04-18T10:12:12.882Z,56.90
2017-04-18T10:13:10.601Z,58.80
2017-04-18T10:14:08.707Z,58.40
2017-04-18T10:15:06.988Z,58.00
2017-04-18T10:16:05.131Z,57.70
2017-04-18T10:17:03.679Z,57.60
2017-04-18T10:18:01.845Z,59.20
2017-04-18T10:18:59.973Z,60.00
2017-04-18T10:19:57.724Z,60.10
2017-04-18T10:20:55.896Z,60.40
2017-04-18T10:21:54.327Z,60.60
2017-04-18T10:22:52.692Z,60.80
2017-04-18T10:23:50.800Z,60.10
2017-04-18T10:24:48.905Z,60.60
2017-04-18T10:25:47.091Z,61.30
2017-04-18T10:26:45.215Z,61.50
2017-04-18T10:27:42.951Z,61.50
2017-04-18T10:28:41.077Z,62.10
2017-04-18T10:29:39.261Z,62.90
2017-04-18T10:30:37.464Z,63.00
2017-04-18T10:31:35.567Z,62.20
2017-04-18T10:32:33.548Z,62.20
2017-04-18T10:33:31.657Z,62.60
2017-04-18T10:34:29.739Z,64.50
2017-04-18T10:35:27.972Z,64.50
2017-04-18T10:36:26.052Z,63.80
2017-04-18T10:37:24.127Z,62.60
2017-04-18T10:38:22.299Z,63.60
2017-04-18T10:39:20.023Z,63.70
2017-04-18T10:40:19.491Z,64.50
2017-04-18T10:41:17.575Z,64.50
2017-04-18T10:42:15.664Z,64.50
2017-04-18T10:43:13.747Z,64.00
2017-04-18T10:44:11.800Z,65.00
2017-04-18T10:45:10.186Z,65.10
2017-04-18T10:46:08.421Z,63.00
2017-04-18T10:47:06.611Z,64.40
2017-04-18T10:48:04.819Z,63.30
2017-04-18T10:49:02.923Z,64.20
2017-04-18T10:50:01.928Z,64.20
2017-04-18T10:51:00.946Z,66.20
2017-04-18T10:51:59.135Z,65.00
2017-04-18T10:52:57.196Z,63.90
2017-04-18T10:53:55.316Z,63.00
2017-04-18T10:54:53.409Z,64.70
2017-04-18T10:55:52.688Z,65.50
2017-04-18T10:56:50.843Z,64.80
2017-04-18T10:57:48.933Z,63.60
2017-04-18T10:58:47.057Z,63.70
2017-04-18T10:59:45.188Z,63.10
2017-04-18T11:00:43.411Z,63.70
2017-04-18T11:01:41.503Z,65.30
2017-04-18T11:02:39.833Z,64.40
2017-04-18T11:03:37.924Z,64.50
2017-04-18T11:04:36.021Z,63.70
2017-04-18T11:05:34.252Z,63.40
2017-04-18T11:06:32.674Z,60.70
2017-04-18T11:07:30.888Z,60.20
2017-04-18T11:08:28.989Z,58.60
2017-04-18T11:09:27.108Z,56.90
2017-04-18T11:10:25.296Z,56.60
2017-04-18T11:11:23.380Z,54.80
2017-04-18T11:12:21.519Z,54.00
2017-04-18T11:13:19.726Z,51.80
2017-04-18T11:14:17.848Z,50.80
2017-04-18T11:15:16.359Z,51.50
2017-04-18T11:16:14.488Z,50.90
2017-04-18T11:17:12.664Z,50.20
2017-04-18T11:18:10.816Z,52.00
2017-04-18T11:19:08.545Z,52.00
2017-04-18T11:20:06.389Z,50.70
2017-04-18T11:21:04.585Z,49.50
2017-04-18T11:22:02.734Z,50.00
2017-04-18T11:23:00.828Z,49.80
2017-04-18T11:23:58.923Z,48.30
2017-04-18T11:24:57.031Z,48.20
2017-04-18T11:25:55.657Z,47.80
2017-04-18T11:26:53.786Z,47.10
2017-04-18T11:27:51.897Z,46.70
2017-04-18T11:28:49.947Z,46.80
2017-04-18T11:29:48.107Z,47.00
2017-04-18T11:30:46.255Z,48.00
2017-04-18T11:31:44.430Z,49.20
2017-04-18T11:32:42.530Z,48.30
2017-04-18T11:33:40.928Z,47.00
2017-04-18T11:34:39.027Z,44.80
2017-04-18T11:35:37.719Z,46.20
2017-04-18T11:36:35.844Z,44.00
2017-04-18T11:37:33.952Z,44.40
2017-04-18T11:38:32.347Z,47.10
2017-04-18T11:39:30.459Z,44.90
2017-04-18T11:40:28.656Z,45.00
2017-04-18T11:41:26.844Z,45.10
2017-04-18T11:42:24.643Z,45.10
2017-04-18T11:43:22.362Z,45.70
2017-04-18T11:44:20.431Z,42.00
2017-04-18T11:45:18.684Z,43.20
2017-04-18T11:46:16.832Z,42.90
2017-04-18T11:47:15.440Z,41.20
2017-04-18T11:48:13.597Z,39.40
2017-04-18T11:49:11.697Z,37.60
2017-04-18T11:50:09.991Z,37.60
2017-04-18T11:51:08.195Z,35.40
2017-04-18T11:52:06.329Z,35.20
2017-04-18T11:53:04.146Z,35.20
2017-04-18T11:54:02.304Z,35.50
2017-04-18T11:55:00.440Z,34.40
2017-04-18T11:55:58.930Z,32.30
2017-04-18T11:56:57.059Z,30.90
2017-04-18T11:57:55.088Z,30.70
2017-04-18T11:58:53.223Z,31.70
2017-04-18T11:59:51.379Z,30.20
2017-04-18T12:00:49.663Z,31.70
2017-04-18T12:01:47.861Z,31.20
2017-04-18T12:02:46.351Z,29.90
2017-04-18T12:03:44.452Z,28.50
2017-04-18T12:04:42.200Z,28.50
2017-04-18T12:05:40.406Z,32.10
2017-04-18T12:06:38.661Z,32.10
2017-04-18T12:07:36.761Z,35.00
2017-04-18T12:08:34.923Z,33.30
2017-04-18T12:09:33.221Z,34.90
2017-04-18T12:10:31.647Z,36.20
2017-04-18T12:11:29.764Z,35.10
2017-04-18T12:12:27.916Z,33.00
2017-04-18T12:13:25.985Z,32.60
2017-04-18T12:14:24.143Z,32.00
2017-04-18T12:15:22.325Z,32.90
2017-04-18T12:16:20.430Z,32.00
2017-04-18T12:17:18.504Z,31.00
2017-04-18T12:18:16.652Z,29.60
2017-04-18T12:19:14.711Z,30.60
2017-04-18T12:20:12.876Z,29.10
2017-04-18T12:21:11.012Z,28.00
2017-04-18T12:22:09.555Z,25.40
2017-04-18T12:23:07.635Z,26.90
2017-04-18T12:24:05.739Z,24.80
2017-04-18T12:25:03.965Z,23.50
2017-04-18T12:26:02.021Z,24.00
2017-04-18T12:27:00.136Z,24.10
2017-04-18T12:27:58.304Z,24.60
2017-04-18T12:28:56.407Z,25.00
2017-04-18T12:29:54.465Z,26.70
2017-04-18T12:30:52.907Z,25.90